»·PEaware :: N8132R KOXR-KPOC

N8132R :: KOXR-KPOC

FLIGHT INFORMATION

Flight Status: Arrived
Operator: Privately registered:
United States
More flights under this callsign
Pilot: Zack Y. (45007)
Aircraft: PIPER PA-28 CHEROKEE ARCHER
(P28A)
More flights by this aircraft type
Origin: KOXR Oxnard
United States
Destination: KPOC Brackett
United States
More flights between these airports :: More routes between these airports
Route:
File this flight plan on PilotEdge
Remarks:
Altitude:
(Current/Filed)
5,500ft
Speed:
(Current/Filed)
0kts
Departed: 18-Nov-23 04:38 PM
Arrived: 18-Nov-23 05:20 PM
Distance/Time
Traveled:
71nm/0:41
Distance/Time
To Go:
Arrived

Flight Plot

Page will automatically refresh every two minutes.

Flight plan parsing failed; only flown route is shown


Map Options




Map Legend


Flown Route
Filed Route
Departure Airport
Arrival Airport
Navaid (VOR, NDB)
Fix

Horizontal Profiles

Position Reports

Time Latitude Longitude Heading Altitude Ground
Speed
18-Nov-23 16:32 34.199272 -119.202625 188 46ft 0kts
18-Nov-23 16:33 34.199159 -119.203271 329 47ft 6kts
18-Nov-23 16:34 34.199779 -119.197768 63 44ft 10kts
18-Nov-23 16:35 34.199901 -119.197610 30 44ft 0kts
18-Nov-23 16:36 34.199901 -119.197610 30 44ft 0kts
18-Nov-23 16:37 34.201043 -119.210365 269 262ft 81kts
18-Nov-23 16:38 34.191638 -119.229022 152 851ft 96kts
18-Nov-23 16:39 34.188834 -119.198134 86 1810ft 101kts
18-Nov-23 16:40 34.194277 -119.163861 81 2623ft 110kts
18-Nov-23 16:41 34.199719 -119.124445 84 3050ft 121kts
18-Nov-23 16:42 34.202661 -119.083555 97 3505ft 122kts
18-Nov-23 16:43 34.199363 -119.042129 93 3849ft 125kts
18-Nov-23 16:44 34.198173 -118.999783 102 4131ft 126kts
18-Nov-23 16:45 34.190845 -118.958239 104 4288ft 124kts
18-Nov-23 16:46 34.180794 -118.917279 111 4510ft 128kts
18-Nov-23 16:47 34.167839 -118.877318 110 4720ft 130kts
18-Nov-23 16:48 34.157178 -118.836272 102 4897ft 129kts
18-Nov-23 16:49 34.147823 -118.794086 103 5091ft 130kts
18-Nov-23 16:50 34.149104 -118.749679 94 5205ft 132kts
18-Nov-23 16:51 34.146936 -118.705293 95 5407ft 129kts
18-Nov-23 16:52 34.147017 -118.661684 93 5322ft 131kts
18-Nov-23 16:53 34.148238 -118.619903 95 5387ft 130kts
18-Nov-23 16:54 34.147283 -118.576736 100 5283ft 132kts
18-Nov-23 16:55 34.132186 -118.539993 87 5286ft 122kts
18-Nov-23 16:56 34.133912 -118.499116 88 5412ft 121kts
18-Nov-23 16:57 34.134355 -118.458030 91 5503ft 126kts
18-Nov-23 16:58 34.134741 -118.415590 94 5472ft 129kts
18-Nov-23 16:59 34.130939 -118.374082 93 5132ft 122kts
18-Nov-23 17:00 34.129481 -118.334651 110 5201ft 117kts
18-Nov-23 17:01 34.121736 -118.297528 87 5431ft 111kts
18-Nov-23 17:02 34.123090 -118.258266 92 5472ft 117kts
18-Nov-23 17:03 34.121025 -118.218362 106 5541ft 120kts
18-Nov-23 17:04 34.117143 -118.178216 92 5652ft 121kts
18-Nov-23 17:05 34.113885 -118.137806 102 5786ft 120kts
18-Nov-23 17:06 34.106206 -118.098035 115 5821ft 117kts
18-Nov-23 17:07 34.090013 -118.063340 136 5681ft 118kts
18-Nov-23 17:08 34.079531 -118.026715 88 5610ft 122kts
18-Nov-23 17:09 34.079171 -117.986107 91 5551ft 121kts
18-Nov-23 17:10 34.082536 -117.945914 89 4899ft 114kts
18-Nov-23 17:11 34.081540 -117.912204 98 4125ft 94kts
18-Nov-23 17:12 34.078031 -117.882219 104 3590ft 94kts
18-Nov-23 17:13 34.072962 -117.852068 103 3155ft 88kts
18-Nov-23 17:14 34.068836 -117.819476 96 3432ft 103kts
18-Nov-23 17:15 34.066121 -117.782924 99 3635ft 109kts
18-Nov-23 17:16 34.068221 -117.745917 62 2291ft 109kts
18-Nov-23 17:17 34.087617 -117.754092 295 1944ft 92kts
18-Nov-23 17:18 34.091125 -117.778482 268 1003ft 48kts
18-Nov-23 17:19 34.090853 -117.782465 221 997ft 0kts
18-Nov-23 17:20 34.090853 -117.782465 221 997ft 0kts
18-Nov-23 17:21 34.090379 -117.778596 123 1003ft 30kts
18-Nov-23 17:22 34.087874 -117.776746 178 1003ft 0kts
18-Nov-23 17:23 34.087874 -117.776746 178 1003ft 0kts

Navigation Log

Ident Type
Flight plan parsing failed, navigation log unavailable